Time;durP1;ratioP1;P1;durP2;ratioP2;P2;SDS_P1;SDS_P2;PMS_P1;PMS_P2;Temp;Humidity;BMP_temperature;BMP_pressure;BME280_temperature;BME280_humidity;BME280_pressure;Samples;Min_cycle;Max_cycle;Signal;HPM_P1;HPM_P2
2023/06/16 00:01:59;;;;;;;5.05;3.33;;;23.50;67.60;;;;;;5095912;28;20211;-34
2023/06/16 00:04:31;;;;;;;6.57;3.78;;;23.50;67.70;;;;;;5063042;28;20764;-34
2023/06/16 00:06:58;;;;;;;4.43;3.70;;;23.50;67.90;;;;;;5095884;28;20200;-34
2023/06/16 00:09:28;;;;;;;3.60;3.25;;;23.40;67.80;;;;;;5062290;28;20620;-34
2023/06/16 00:11:58;;;;;;;5.97;3.58;;;23.40;68.00;;;;;;5064132;28;20328;-34
2023/06/16 00:14:30;;;;;;;6.57;3.53;;;23.40;68.00;;;;;;5063928;28;20223;-34
2023/06/16 00:17:00;;;;;;;5.03;3.60;;;23.30;67.90;;;;;;5096853;28;20549;-34
2023/06/16 00:19:32;;;;;;;4.68;3.70;;;23.30;68.10;;;;;;5095731;28;20306;-35
2023/06/16 00:22:06;;;;;;;4.40;3.40;;;23.20;68.00;;;;;;5063536;28;20243;-35
2023/06/16 00:24:33;;;;;;;6.30;3.53;;;23.20;68.10;;;;;;5066106;28;20195;-34
2023/06/16 00:27:00;;;;;;;6.00;3.30;;;23.20;68.10;;;;;;5082781;28;20223;-35
2023/06/16 00:29:28;;;;;;;4.20;3.80;;;23.10;68.10;;;;;;5065783;28;20216;-34
2023/06/16 00:31:59;;;;;;;4.90;4.00;;;23.10;68.20;;;;;;5058664;28;20305;-35
2023/06/16 00:34:34;;;;;;;5.22;3.35;;;23.00;68.30;;;;;;5047669;28;20692;-32
2023/06/16 00:37:01;;;;;;;5.38;3.70;;;23.00;68.40;;;;;;5095517;28;20210;-39
2023/06/16 00:39:31;;;;;;;5.05;4.00;;;22.90;68.20;;;;;;5063158;28;20219;-40
2023/06/16 00:41:58;;;;;;;5.72;3.90;;;22.90;68.40;;;;;;5095668;28;20191;-40
2023/06/16 00:44:31;;;;;;;4.72;3.42;;;22.90;68.30;;;;;;5063337;28;20210;-34
2023/06/16 00:46:59;;;;;;;4.30;3.90;;;22.80;68.50;;;;;;5064032;28;20283;-33
2023/06/16 00:49:31;;;;;;;6.68;3.92;;;22.80;68.40;;;;;;5062290;28;20298;-33
2023/06/16 00:52:07;;;;;;;6.00;4.22;;;22.70;68.50;;;;;;5094736;28;20668;-33
2023/06/16 00:54:36;;;;;;;5.97;4.30;;;22.70;68.80;;;;;;5094852;28;20770;-33
2023/06/16 00:57:06;;;;;;;5.80;3.67;;;22.60;68.60;;;;;;5094735;28;20252;-34
2023/06/16 00:59:36;;;;;;;5.22;3.78;;;22.60;68.80;;;;;;5060256;28;20199;-34
2023/06/16 01:02:06;;;;;;;4.65;3.47;;;22.50;68.80;;;;;;5063321;28;20227;-34
2023/06/16 01:04:38;;;;;;;5.88;3.85;;;22.50;69.00;;;;;;5061945;28;20226;-34
2023/06/16 01:07:18;;;;;;;4.68;3.65;;;22.50;69.10;;;;;;5061326;28;20287;-33
2023/06/16 01:09:57;;;;;;;4.20;3.22;;;22.40;69.20;;;;;;5062832;28;20246;-37
2023/06/16 01:12:46;;;;;;;5.05;3.80;;;22.40;69.30;;;;;;5063691;28;20235;-34
2023/06/16 01:15:18;;;;;;;5.07;3.90;;;22.30;69.50;;;;;;5062320;28;20196;-33
2023/06/16 01:17:46;;;;;;;5.53;3.78;;;22.20;69.20;;;;;;5062979;28;20619;-33
2023/06/16 01:20:48;;;;;;;6.50;3.88;;;22.20;69.30;;;;;;5063072;28;20214;-33
2023/06/16 01:23:20;;;;;;;4.53;3.40;;;22.20;70.30;;;;;;5063050;28;20218;-34
2023/06/16 01:25:49;;;;;;;5.25;3.80;;;22.10;69.50;;;;;;5061303;28;20219;-34
2023/06/16 01:28:24;;;;;;;5.88;3.85;;;22.00;69.60;;;;;;5061695;28;20237;-34
2023/06/16 01:30:52;;;;;;;6.50;4.03;;;22.00;69.90;;;;;;5062371;28;20584;-34
2023/06/16 01:33:22;;;;;;;4.70;3.65;;;22.00;69.80;;;;;;5091838;28;20315;-34
2023/06/16 01:35:52;;;;;;;6.38;4.22;;;21.90;69.80;;;;;;5062886;28;20665;-33
2023/06/16 01:38:23;;;;;;;3.60;3.30;;;21.80;69.90;;;;;;5061566;28;20203;-34
2023/06/16 01:40:57;;;;;;;6.93;4.15;;;21.80;70.00;;;;;;5045334;28;20226;-33
2023/06/16 01:43:25;;;;;;;5.38;3.90;;;21.80;70.00;;;;;;5061998;28;20286;-34
2023/06/16 01:45:53;;;;;;;5.65;3.88;;;21.70;70.10;;;;;;5060259;28;20223;-33
2023/06/16 01:48:26;;;;;;;4.50;3.92;;;21.70;70.20;;;;;;5062830;28;20277;-33
2023/06/16 01:50:56;;;;;;;5.43;3.95;;;21.70;70.30;;;;;;5091825;28;20716;-33
2023/06/16 01:53:28;;;;;;;5.78;4.30;;;21.70;70.40;;;;;;5062356;28;20576;-39
2023/06/16 01:55:58;;;;;;;4.18;3.78;;;21.60;70.20;;;;;;5061989;28;21051;-38
2023/06/16 01:58:29;;;;;;;5.90;4.07;;;21.60;70.10;;;;;;5062434;28;20239;-39
2023/06/16 02:01:04;;;;;;;6.25;4.93;;;21.60;70.20;;;;;;5062241;28;20226;-38
2023/06/16 02:03:46;;;;;;;5.47;4.22;;;21.60;70.40;;;;;;5062467;28;20218;-39
2023/06/16 02:06:23;;;;;;;5.75;4.10;;;21.60;70.60;;;;;;5061249;28;20215;-33
2023/06/16 02:08:57;;;;;;;4.88;3.65;;;21.60;71.00;;;;;;5040805;28;20342;-34
2023/06/16 02:11:28;;;;;;;4.93;4.43;;;21.50;70.60;;;;;;5073306;28;20203;-34
2023/06/16 02:13:58;;;;;;;5.63;4.00;;;21.50;70.80;;;;;;5042492;28;20293;-33
2023/06/16 02:16:34;;;;;;;6.63;4.30;;;21.50;70.80;;;;;;5061178;28;20238;-33
2023/06/16 02:19:04;;;;;;;7.32;4.32;;;21.40;70.90;;;;;;5093922;28;20211;-39
2023/06/16 02:21:34;;;;;;;5.90;3.90;;;21.40;70.90;;;;;;5093519;28;20255;-39
2023/06/16 02:24:08;;;;;;;5.47;4.07;;;21.30;71.20;;;;;;5093510;28;20241;-39
2023/06/16 02:26:37;;;;;;;4.45;3.90;;;21.30;71.30;;;;;;5060156;28;20207;-39
2023/06/16 02:29:05;;;;;;;5.25;4.35;;;21.30;71.40;;;;;;5078114;28;20213;-39
2023/06/16 02:31:32;;;;;;;8.38;3.67;;;21.30;71.50;;;;;;5063899;28;20234;-39
2023/06/16 02:34:04;;;;;;;7.45;4.40;;;21.20;71.40;;;;;;5097386;28;20243;-38
2023/06/16 02:36:36;;;;;;;4.65;4.00;;;21.20;71.50;;;;;;5065948;28;20211;-39
2023/06/16 02:39:06;;;;;;;5.93;4.22;;;21.20;71.70;;;;;;5065332;28;20629;-39
2023/06/16 02:41:34;;;;;;;7.20;4.32;;;21.10;71.60;;;;;;5065075;28;20586;-39
2023/06/16 02:44:04;;;;;;;7.13;3.92;;;21.10;71.70;;;;;;5065210;28;20243;-39
2023/06/16 02:46:33;;;;;;;5.18;3.95;;;21.10;71.70;;;;;;5065118;28;20523;-34
2023/06/16 02:49:03;;;;;;;6.68;4.85;;;21.00;71.80;;;;;;5097815;28;20253;-33
2023/06/16 02:51:30;;;;;;;4.75;4.05;;;21.00;71.80;;;;;;5062906;28;20208;-33
2023/06/16 02:54:02;;;;;;;7.57;4.30;;;21.00;72.00;;;;;;5065363;28;20247;-33
2023/06/16 02:56:29;;;;;;;6.65;4.25;;;21.00;72.10;;;;;;5094878;28;20366;-33
2023/06/16 02:58:59;;;;;;;4.38;3.97;;;20.90;72.10;;;;;;5065995;28;20567;-33
2023/06/16 03:01:29;;;;;;;7.53;4.30;;;20.90;72.20;;;;;;5063491;28;20617;-39
2023/06/16 03:04:00;;;;;;;6.18;4.05;;;20.90;72.30;;;;;;5065528;28;20303;-38
2023/06/16 03:06:30;;;;;;;4.40;3.95;;;20.90;72.30;;;;;;5064252;28;20517;-39
2023/06/16 03:09:03;;;;;;;4.72;4.18;;;20.80;72.50;;;;;;5064970;28;20200;-38
2023/06/16 03:11:30;;;;;;;5.55;3.97;;;20.80;72.60;;;;;;5064969;28;20216;-39
2023/06/16 03:14:01;;;;;;;7.32;4.72;;;20.80;72.50;;;;;;5064739;28;20243;-38
2023/06/16 03:16:32;;;;;;;5.03;4.32;;;20.70;72.90;;;;;;5095330;28;20210;-39
2023/06/16 03:18:59;;;;;;;7.80;4.50;;;20.70;72.70;;;;;;5062632;28;20215;-38
2023/06/16 03:21:27;;;;;;;5.40;4.47;;;20.70;72.70;;;;;;5063301;28;20239;-39
2023/06/16 03:23:54;;;;;;;5.50;4.38;;;20.70;72.90;;;;;;5065303;28;20196;-39
2023/06/16 03:26:26;;;;;;;5.93;4.38;;;20.70;72.70;;;;;;5062766;28;20386;-39
2023/06/16 03:28:53;;;;;;;6.88;5.00;;;20.70;72.70;;;;;;5045261;28;20227;-33
2023/06/16 03:31:22;;;;;;;5.90;4.72;;;20.60;72.70;;;;;;5052300;28;20659;-33
2023/06/16 03:33:51;;;;;;;6.57;4.35;;;20.60;72.90;;;;;;5095427;28;20694;-33
2023/06/16 03:36:19;;;;;;;7.75;4.70;;;20.60;72.80;;;;;;5065207;28;20204;-33
2023/06/16 03:38:48;;;;;;;5.10;4.60;;;20.60;72.90;;;;;;5095651;28;20214;-33
2023/06/16 03:41:16;;;;;;;5.38;4.30;;;20.50;73.00;;;;;;5078300;28;20227;-34
2023/06/16 03:43:48;;;;;;;5.82;5.07;;;20.50;73.10;;;;;;5062747;28;20235;-34
2023/06/16 03:46:18;;;;;;;8.02;4.97;;;20.50;73.10;;;;;;5094456;28;20288;-34
2023/06/16 03:48:50;;;;;;;5.43;4.93;;;20.40;73.00;;;;;;5064780;28;20693;-34
2023/06/16 03:51:20;;;;;;;5.85;4.97;;;20.40;73.20;;;;;;5065260;28;20223;-34
2023/06/16 03:53:48;;;;;;;6.47;4.80;;;20.40;73.10;;;;;;5077979;28;20219;-34
2023/06/16 03:56:15;;;;;;;6.97;5.18;;;20.40;73.10;;;;;;5096000;28;20288;-34
2023/06/16 03:58:42;;;;;;;8.70;5.13;;;20.30;73.10;;;;;;5096468;28;20219;-39
2023/06/16 04:01:14;;;;;;;5.68;5.07;;;20.40;73.60;;;;;;5063270;28;20231;-39
2023/06/16 04:03:43;;;;;;;7.85;5.47;;;20.40;73.80;;;;;;5096357;28;20207;-39
2023/06/16 04:06:11;;;;;;;5.57;4.90;;;20.40;73.60;;;;;;5064329;28;20214;-39
2023/06/16 04:08:40;;;;;;;5.60;5.00;;;20.40;73.50;;;;;;5063602;28;20230;-39
2023/06/16 04:11:07;;;;;;;5.78;4.80;;;20.30;73.40;;;;;;5062966;28;20215;-39
2023/06/16 04:13:39;;;;;;;9.20;5.15;;;20.30;73.40;;;;;;5063003;28;20406;-39
2023/06/16 04:16:09;;;;;;;6.50;5.68;;;20.30;73.60;;;;;;5062519;28;20293;-39
2023/06/16 04:18:38;;;;;;;6.38;4.93;;;20.30;74.10;;;;;;5044806;28;20518;-39
2023/06/16 04:21:08;;;;;;;6.95;5.70;;;20.30;73.80;;;;;;5044593;28;20310;-38
2023/06/16 04:23:38;;;;;;;7.70;5.57;;;20.30;74.20;;;;;;5059422;28;20212;-39
2023/06/16 04:26:06;;;;;;;6.32;4.93;;;20.30;74.40;;;;;;5061599;28;20223;-39
2023/06/16 04:28:38;;;;;;;7.57;5.32;;;20.30;74.30;;;;;;5064926;28;20222;-40
2023/06/16 04:31:09;;;;;;;7.40;5.43;;;20.30;74.20;;;;;;5064095;28;20681;-34
2023/06/16 04:33:36;;;;;;;10.25;5.53;;;20.30;74.30;;;;;;5093200;28;20605;-34
2023/06/16 04:36:04;;;;;;;7.47;5.40;;;20.30;74.30;;;;;;5062232;28;20719;-34
2023/06/16 04:38:34;;;;;;;6.68;4.85;;;20.30;74.70;;;;;;5063761;28;20219;-34
2023/06/16 04:41:01;;;;;;;6.18;5.10;;;20.40;74.60;;;;;;5062783;28;20316;-34
2023/06/16 04:43:28;;;;;;;7.38;5.88;;;20.40;74.60;;;;;;5063683;28;20203;-34
2023/06/16 04:45:58;;;;;;;8.75;5.68;;;20.40;74.80;;;;;;5063988;28;20691;-34
2023/06/16 04:48:28;;;;;;;6.57;5.25;;;20.40;75.30;;;;;;5094125;28;20766;-34
2023/06/16 04:50:57;;;;;;;8.40;5.97;;;20.40;74.90;;;;;;5095542;28;20321;-34
2023/06/16 04:53:29;;;;;;;7.00;5.53;;;20.40;75.40;;;;;;5092958;28;20254;-34
2023/06/16 04:55:56;;;;;;;7.88;5.97;;;20.40;75.30;;;;;;5062464;28;20632;-34
2023/06/16 04:58:25;;;;;;;8.25;6.35;;;20.40;75.30;;;;;;5057641;28;20219;-34
2023/06/16 05:01:00;;;;;;;8.32;5.60;;;20.40;75.80;;;;;;5059663;28;20278;-34
2023/06/16 05:03:30;;;;;;;6.05;5.45;;;20.40;76.10;;;;;;5059810;28;20716;-34
2023/06/16 05:05:58;;;;;;;8.43;5.82;;;20.50;75.50;;;;;;5061096;28;20204;-34
2023/06/16 05:08:27;;;;;;;10.73;5.50;;;20.50;75.30;;;;;;5059191;28;20627;-34
2023/06/16 05:11:01;;;;;;;6.05;4.90;;;20.60;75.40;;;;;;5057903;28;20239;-35
2023/06/16 05:13:30;;;;;;;7.80;5.72;;;20.60;75.20;;;;;;5059957;28;20437;-34
2023/06/16 05:15:57;;;;;;;9.13;6.07;;;20.70;75.20;;;;;;5060727;28;20219;-34
2023/06/16 05:18:24;;;;;;;8.15;5.43;;;20.70;75.40;;;;;;5060567;28;20195;-34
2023/06/16 05:20:52;;;;;;;9.73;6.20;;;20.80;75.70;;;;;;5062001;28;20230;-34
2023/06/16 05:23:24;;;;;;;7.97;6.13;;;20.90;75.70;;;;;;5061741;28;20199;-34
2023/06/16 05:25:52;;;;;;;6.60;5.40;;;21.00;75.90;;;;;;5062027;28;20199;-34
2023/06/16 05:28:25;;;;;;;7.75;6.40;;;21.00;75.80;;;;;;5060798;28;20303;-34
2023/06/16 05:30:52;;;;;;;6.20;5.60;;;21.10;76.10;;;;;;5060537;28;20275;-34
2023/06/16 05:33:19;;;;;;;11.38;6.20;;;21.10;76.00;;;;;;5061389;28;20961;-34
2023/06/16 05:35:49;;;;;;;8.05;6.03;;;21.10;75.80;;;;;;5060798;28;20196;-34
2023/06/16 05:38:19;;;;;;;9.25;6.47;;;21.20;76.00;;;;;;5062083;28;20634;-34
2023/06/16 05:40:51;;;;;;;6.88;5.60;;;21.20;76.10;;;;;;5061496;28;20199;-34
2023/06/16 05:43:21;;;;;;;8.65;5.70;;;21.20;75.90;;;;;;5061576;28;20212;-34
2023/06/16 05:45:54;;;;;;;9.27;6.30;;;21.30;75.90;;;;;;5061929;28;20278;-34
2023/06/16 05:48:21;;;;;;;10.43;7.18;;;21.30;76.00;;;;;;5056927;28;20812;-34
2023/06/16 05:50:52;;;;;;;8.75;6.00;;;21.50;76.70;;;;;;5062106;28;20522;-34
2023/06/16 05:53:20;;;;;;;8.50;6.80;;;21.50;76.30;;;;;;5092358;28;20613;-34
2023/06/16 05:55:47;;;;;;;9.27;6.60;;;21.60;76.40;;;;;;5084569;28;20326;-34
2023/06/16 05:58:19;;;;;;;17.42;9.00;;;21.60;76.50;;;;;;5051967;28;20215;-34
2023/06/16 06:00:48;;;;;;;12.50;6.88;;;21.60;76.70;;;;;;5057174;28;20199;-33
2023/06/16 06:03:18;;;;;;;11.35;7.15;;;21.60;76.60;;;;;;5090056;28;20266;-34
2023/06/16 06:05:46;;;;;;;9.57;7.15;;;21.70;76.70;;;;;;5061667;28;20210;-42
2023/06/16 06:08:13;;;;;;;10.85;6.53;;;21.70;76.70;;;;;;5059389;28;20210;-42
2023/06/16 06:10:40;;;;;;;20.20;8.15;;;21.70;76.60;;;;;;5091245;27;20703;-42
2023/06/16 06:13:07;;;;;;;16.50;8.52;;;21.80;76.80;;;;;;5080968;28;20235;-36
2023/06/16 06:15:37;;;;;;;9.60;7.22;;;21.80;76.70;;;;;;5050541;28;20650;-44
2023/06/16 06:18:04;;;;;;;15.18;7.45;;;21.80;76.70;;;;;;5064656;28;20196;-42
2023/06/16 06:20:34;;;;;;;9.52;7.53;;;21.90;77.00;;;;;;5065891;28;20195;-42
2023/06/16 06:23:02;;;;;;;9.98;7.70;;;21.90;76.90;;;;;;5062745;28;20281;-42
2023/06/16 06:25:30;;;;;;;9.50;7.30;;;21.90;76.90;;;;;;5073744;28;20598;-42
2023/06/16 06:28:00;;;;;;;10.98;7.07;;;21.90;76.70;;;;;;5066092;28;20212;-42
2023/06/16 06:30:29;;;;;;;59.33;13.70;;;22.00;76.80;;;;;;5055995;28;20273;-42
2023/06/16 06:32:57;;;;;;;31.23;11.18;;;22.10;76.90;;;;;;5092960;28;20227;-42
2023/06/16 06:35:27;;;;;;;11.68;7.35;;;22.10;77.00;;;;;;5093714;28;20338;-42
2023/06/16 06:37:54;;;;;;;20.58;8.80;;;22.10;77.00;;;;;;5064552;28;20355;-42
2023/06/16 06:40:24;;;;;;;11.00;8.70;;;22.20;77.00;;;;;;5094286;28;20195;-42
2023/06/16 06:42:55;;;;;;;11.15;9.00;;;22.20;77.40;;;;;;5087224;28;20200;-42
2023/06/16 06:45:27;;;;;;;16.15;9.90;;;22.30;77.40;;;;;;5062420;28;21009;-42
2023/06/16 06:47:55;;;;;;;11.25;8.57;;;22.30;77.30;;;;;;5080112;28;20278;-42
2023/06/16 06:50:27;;;;;;;12.18;7.88;;;22.30;77.40;;;;;;5061387;28;20685;-42
2023/06/16 06:52:57;;;;;;;10.75;7.80;;;22.40;77.30;;;;;;5064528;28;20214;-34
2023/06/16 06:55:24;;;;;;;10.48;8.07;;;22.40;77.30;;;;;;5095252;28;20239;-34
2023/06/16 06:57:51;;;;;;;10.75;7.50;;;22.40;77.30;;;;;;5061641;28;20233;-34
2023/06/16 07:00:21;;;;;;;9.02;7.10;;;22.50;77.30;;;;;;5066487;28;20270;-34
2023/06/16 07:02:50;;;;;;;8.50;6.95;;;22.50;77.30;;;;;;5063544;28;20407;-34
2023/06/16 07:05:18;;;;;;;8.40;6.60;;;22.50;77.30;;;;;;5062094;28;20199;-34
2023/06/16 07:07:45;;;;;;;11.38;7.38;;;22.50;77.30;;;;;;5096505;28;20211;-34
2023/06/16 07:10:15;;;;;;;8.98;6.57;;;22.60;77.50;;;;;;5093795;28;20623;-34
2023/06/16 07:12:47;;;;;;;10.43;6.57;;;22.60;77.30;;;;;;5050617;28;20314;-36
2023/06/16 07:15:16;;;;;;;9.43;6.15;;;22.60;77.20;;;;;;5079466;28;20557;-36
2023/06/16 07:17:46;;;;;;;8.57;6.15;;;22.60;77.10;;;;;;5062552;28;20214;-36
2023/06/16 07:20:16;;;;;;;10.45;6.25;;;22.70;77.10;;;;;;5079499;28;20207;-36
2023/06/16 07:22:48;;;;;;;7.97;6.03;;;22.70;77.10;;;;;;5064684;28;20831;-36
2023/06/16 07:25:17;;;;;;;9.93;6.32;;;22.70;77.20;;;;;;5063541;28;20689;-37
2023/06/16 07:27:45;;;;;;;8.15;5.72;;;22.80;77.40;;;;;;5096434;28;20231;-37
2023/06/16 07:30:12;;;;;;;10.13;5.95;;;22.90;77.40;;;;;;5061888;28;20222;-37
2023/06/16 07:32:39;;;;;;;8.02;5.50;;;22.90;77.30;;;;;;5095458;28;20203;-37
2023/06/16 07:35:09;;;;;;;10.13;5.97;;;23.00;78.00;;;;;;5064470;28;20223;-36
2023/06/16 07:37:43;;;;;;;7.38;5.28;;;23.10;77.50;;;;;;5062725;28;20215;-40
2023/06/16 07:40:13;;;;;;;11.55;5.68;;;23.10;77.40;;;;;;5063861;28;20648;-41
2023/06/16 07:42:44;;;;;;;6.05;5.45;;;23.20;77.40;;;;;;5063740;28;20209;-36
2023/06/16 07:45:12;;;;;;;8.93;5.55;;;23.20;77.30;;;;;;5062150;28;20686;-36
2023/06/16 07:47:42;;;;;;;7.82;5.30;;;23.30;77.40;;;;;;5063189;28;20230;-36
2023/06/16 07:50:13;;;;;;;7.57;5.25;;;23.30;77.30;;;;;;5063856;28;20208;-36
2023/06/16 07:52:41;;;;;;;9.50;4.82;;;23.30;77.30;;;;;;5061903;28;20203;-36
2023/06/16 07:55:12;;;;;;;8.05;5.53;;;23.40;77.40;;;;;;5062062;28;20223;-36
2023/06/16 07:57:39;;;;;;;8.25;5.65;;;23.50;77.50;;;;;;5064432;28;20266;-36
2023/06/16 08:00:12;;;;;;;8.25;5.18;;;23.60;77.70;;;;;;5096030;28;20736;-36
2023/06/16 08:02:44;;;;;;;6.88;4.85;;;23.60;77.60;;;;;;5060714;28;20203;-36
2023/06/16 08:05:16;;;;;;;6.03;5.40;;;23.70;77.50;;;;;;5057066;28;20208;-37
2023/06/16 08:07:44;;;;;;;7.05;5.45;;;23.70;77.60;;;;;;5061520;28;20238;-36
2023/06/16 08:10:16;;;;;;;6.90;4.78;;;23.70;77.50;;;;;;5063506;28;20277;-35
2023/06/16 08:12:43;;;;;;;6.63;4.82;;;23.80;77.50;;;;;;5055211;28;20276;-36
2023/06/16 08:15:15;;;;;;;7.18;5.20;;;23.80;77.50;;;;;;5063083;28;20622;-36
2023/06/16 08:17:43;;;;;;;11.15;6.25;;;23.80;77.50;;;;;;5077586;28;20609;-36
2023/06/16 08:20:13;;;;;;;8.77;5.50;;;23.90;77.60;;;;;;5061742;28;20212;-36
2023/06/16 08:22:40;;;;;;;7.35;5.55;;;23.90;77.40;;;;;;5041935;28;20373;-35
2023/06/16 08:25:13;;;;;;;6.05;4.55;;;24.00;77.40;;;;;;5059545;28;20579;-35
2023/06/16 08:27:42;;;;;;;8.88;4.53;;;24.00;77.20;;;;;;5063436;28;20239;-35
2023/06/16 08:30:15;;;;;;;8.40;5.03;;;24.00;77.20;;;;;;5062408;28;20265;-35
2023/06/16 08:32:45;;;;;;;5.85;4.20;;;24.10;77.30;;;;;;5059653;28;20967;-40
2023/06/16 08:35:15;;;;;;;7.43;4.90;;;24.10;77.00;;;;;;5061433;28;20647;-40
2023/06/16 08:37:42;;;;;;;5.40;4.63;;;24.10;76.80;;;;;;5054004;28;20308;-40
2023/06/16 08:40:11;;;;;;;6.88;4.45;;;24.10;76.70;;;;;;5056627;28;20269;-40
2023/06/16 08:42:43;;;;;;;12.32;4.80;;;24.20;76.90;;;;;;5056651;28;20246;-40
2023/06/16 08:45:13;;;;;;;8.48;4.63;;;24.20;76.90;;;;;;5057281;28;20231;-40
2023/06/16 08:47:42;;;;;;;5.65;4.88;;;24.30;76.90;;;;;;5061006;28;20743;-40
2023/06/16 08:50:19;;;;;;;7.03;4.40;;;24.30;76.90;;;;;;5060603;28;20705;-40
2023/06/16 08:52:52;;;;;;;7.00;4.22;;;24.40;77.00;;;;;;5074507;28;20701;-40
2023/06/16 08:55:23;;;;;;;7.60;5.50;;;24.50;77.20;;;;;;5059373;28;20238;-40
2023/06/16 08:57:52;;;;;;;5.85;4.63;;;24.60;77.40;;;;;;5062529;28;20204;-40
2023/06/16 09:00:24;;;;;;;20.95;6.40;;;24.60;77.30;;;;;;5062424;28;20208;-36
2023/06/16 09:02:56;;;;;;;7.18;4.63;;;24.70;77.40;;;;;;5063392;28;20265;-36
2023/06/16 09:05:27;;;;;;;6.88;4.25;;;24.70;77.40;;;;;;5059719;28;20294;-35
2023/06/16 09:07:57;;;;;;;5.88;4.13;;;24.90;77.70;;;;;;5088212;28;20265;-36
2023/06/16 09:10:25;;;;;;;5.88;3.88;;;25.00;77.80;;;;;;5061491;28;20388;-40
2023/06/16 09:12:55;;;;;;;12.48;5.43;;;25.10;77.80;;;;;;5060203;28;20199;-40
2023/06/16 09:15:23;;;;;;;5.78;4.60;;;25.10;77.80;;;;;;5060481;28;20219;-40
2023/06/16 09:17:52;;;;;;;7.55;4.70;;;25.20;77.20;;;;;;5062410;28;20294;-40
2023/06/16 09:20:23;;;;;;;8.00;4.28;;;25.20;77.00;;;;;;5091298;28;20718;-40
2023/06/16 09:23:00;;;;;;;10.05;4.43;;;25.30;77.00;;;;;;5062400;28;20259;-45
2023/06/16 09:25:32;;;;;;;6.95;4.35;;;25.30;76.80;;;;;;5061872;28;20310;-40
2023/06/16 09:28:09;;;;;;;7.50;3.92;;;25.30;76.60;;;;;;5062239;28;20294;-39
2023/06/16 09:30:37;;;;;;;8.32;4.70;;;25.40;77.40;;;;;;5092977;28;20211;-40
2023/06/16 09:33:11;;;;;;;6.10;4.20;;;25.40;76.60;;;;;;5092413;28;20191;-40
2023/06/16 09:35:45;;;;;;;6.53;4.38;;;25.50;76.70;;;;;;5057933;28;20216;-40
2023/06/16 09:38:17;;;;;;;8.35;4.53;;;25.50;76.70;;;;;;5061553;28;20344;-36
2023/06/16 09:40:47;;;;;;;6.43;4.40;;;25.60;76.90;;;;;;5075624;28;20288;-36
2023/06/16 09:43:17;;;;;;;4.97;3.88;;;25.60;77.00;;;;;;5076452;28;20546;-36
2023/06/16 09:45:44;;;;;;;10.52;4.70;;;25.70;77.10;;;;;;5062156;28;20231;-35
2023/06/16 09:48:14;;;;;;;9.77;4.53;;;25.70;76.90;;;;;;5061024;28;20203;-36
2023/06/16 09:50:41;;;;;;;5.90;4.35;;;25.80;76.80;;;;;;5061305;28;21544;-40
2023/06/16 09:53:13;;;;;;;5.80;4.25;;;25.90;76.90;;;;;;5057098;28;20219;-40
2023/06/16 09:55:43;;;;;;;8.05;3.85;;;25.90;76.80;;;;;;5051343;28;20307;-40
2023/06/16 09:58:11;;;;;;;4.80;4.35;;;25.90;76.50;;;;;;5058590;28;20219;-40
2023/06/16 10:00:40;;;;;;;6.50;4.03;;;26.00;76.60;;;;;;5059269;28;20199;-40
2023/06/16 10:03:12;;;;;;;5.80;4.22;;;26.00;76.10;;;;;;5060151;28;20243;-40
2023/06/16 10:05:42;;;;;;;5.65;3.92;;;26.10;76.20;;;;;;5076176;28;20239;-40
2023/06/16 10:08:10;;;;;;;7.88;4.43;;;26.00;76.10;;;;;;5059858;28;20230;-40
2023/06/16 10:10:43;;;;;;;5.03;4.15;;;26.10;76.20;;;;;;5051579;28;20207;-40
2023/06/16 10:13:13;;;;;;;3.88;3.50;;;26.10;75.90;;;;;;5059499;28;20306;-40
2023/06/16 10:15:43;;;;;;;4.95;3.38;;;26.10;75.60;;;;;;5093445;28;20280;-41
2023/06/16 10:18:16;;;;;;;4.93;3.38;;;26.10;75.60;;;;;;5060283;28;21059;-40
2023/06/16 10:20:46;;;;;;;5.18;3.83;;;26.20;75.60;;;;;;5053751;28;20221;-40
2023/06/16 10:23:13;;;;;;;6.35;4.50;;;26.20;75.10;;;;;;5061040;28;20204;-40
2023/06/16 10:25:46;;;;;;;5.13;3.85;;;26.20;75.10;;;;;;5052570;28;20319;-40
2023/06/16 10:28:14;;;;;;;4.30;3.65;;;26.20;74.70;;;;;;5055220;28;20224;-41
2023/06/16 10:30:43;;;;;;;5.30;3.65;;;26.20;74.90;;;;;;5057089;28;20215;-39
2023/06/16 10:33:22;;;;;;;5.97;3.67;;;26.20;75.10;;;;;;5060736;28;20318;-41
2023/06/16 10:35:56;;;;;;;7.20;3.72;;;26.30;75.30;;;;;;5059844;28;20219;-41
2023/06/16 10:38:42;;;;;;;4.05;3.25;;;26.40;75.30;;;;;;5060469;28;20318;-41
2023/06/16 10:41:14;;;;;;;4.38;3.58;;;26.50;75.40;;;;;;5092679;28;20230;-41
2023/06/16 10:43:49;;;;;;;5.75;3.50;;;26.50;75.40;;;;;;5059549;28;20208;-39
2023/06/16 10:46:21;;;;;;;5.13;3.80;;;26.50;74.50;;;;;;5061099;28;20227;-41
2023/06/16 10:49:07;;;;;;;5.00;3.38;;;26.50;74.60;;;;;;5055929;28;20215;-41
2023/06/16 10:51:48;;;;;;;3.95;3.50;;;26.50;74.20;;;;;;5062762;28;20648;-41
2023/06/16 10:54:36;;;;;;;4.15;3.05;;;26.50;73.90;;;;;;5059721;28;20200;-40
2023/06/16 10:57:07;;;;;;;10.07;4.15;;;26.50;72.10;;;;;;5077419;28;20210;-39
2023/06/16 10:59:53;;;;;;;14.93;4.60;;;26.40;72.70;;;;;;5064013;28;20277;-39
2023/06/16 11:02:33;;;;;;;7.75;3.17;;;26.50;72.00;;;;;;5063856;28;20192;-39
2023/06/16 11:05:07;;;;;;;16.42;5.25;;;26.40;72.20;;;;;;5061743;28;20235;-39
2023/06/16 11:07:38;;;;;;;5.82;3.78;;;26.40;72.50;;;;;;5060292;28;20215;-39
2023/06/16 11:10:15;;;;;;;6.10;3.05;;;26.40;72.80;;;;;;5062130;28;20276;-39
2023/06/16 11:12:43;;;;;;;6.00;3.17;;;26.50;73.00;;;;;;5062619;28;20218;-39
2023/06/16 11:15:11;;;;;;;5.50;3.17;;;26.60;73.50;;;;;;5060897;28;20222;-39
2023/06/16 11:17:40;;;;;;;4.28;3.40;;;26.60;72.30;;;;;;5058264;28;20196;-39
2023/06/16 11:20:14;;;;;;;3.97;3.08;;;26.60;72.70;;;;;;5093612;28;20226;-39
2023/06/16 11:22:44;;;;;;;4.40;3.42;;;26.70;73.10;;;;;;5062017;28;20317;-39
2023/06/16 11:25:12;;;;;;;3.78;3.35;;;26.80;73.10;;;;;;5050115;28;20215;-39
2023/06/16 11:27:40;;;;;;;3.63;3.33;;;26.80;73.00;;;;;;5062636;28;20326;-39
2023/06/16 11:30:10;;;;;;;7.40;3.33;;;26.80;73.10;;;;;;5094857;28;20219;-40
2023/06/16 11:32:37;;;;;;;4.22;3.13;;;26.90;73.20;;;;;;5075959;28;20238;-40
2023/06/16 11:35:09;;;;;;;4.65;3.47;;;26.90;73.30;;;;;;5062856;28;20447;-40
2023/06/16 11:37:45;;;;;;;5.05;3.63;;;26.90;72.30;;;;;;5064450;28;20230;-40
2023/06/16 11:40:20;;;;;;;4.22;3.40;;;27.00;72.70;;;;;;5059340;28;20753;-40
2023/06/16 11:43:16;;;;;;;6.07;3.42;;;27.00;73.00;;;;;;5062129;28;20667;-40
2023/06/16 11:45:47;;;;;;;3.30;3.00;;;27.10;72.50;;;;;;5057698;28;20540;-40
2023/06/16 11:48:19;;;;;;;5.43;3.72;;;27.10;73.20;;;;;;5064359;28;20199;-40
2023/06/16 11:50:46;;;;;;;5.15;4.00;;;27.10;71.70;;;;;;5059348;28;20200;-40
2023/06/16 11:53:15;;;;;;;5.35;3.90;;;27.00;71.10;;;;;;5061076;28;20700;-41
2023/06/16 11:55:53;;;;;;;6.57;4.10;;;27.10;72.20;;;;;;5062430;28;20212;-41
2023/06/16 11:58:26;;;;;;;4.53;4.05;;;27.00;70.80;;;;;;5077166;28;20686;-39
2023/06/16 12:01:00;;;;;;;8.43;4.10;;;27.00;71.30;;;;;;5057699;28;20211;-40
2023/06/16 12:03:35;;;;;;;4.40;3.45;;;27.10;71.60;;;;;;5060736;28;20200;-39
2023/06/16 12:06:15;;;;;;;5.25;3.88;;;27.10;71.50;;;;;;5062123;28;20206;-40
2023/06/16 12:08:55;;;;;;;4.43;3.63;;;27.20;72.20;;;;;;5094469;27;20722;-40
2023/06/16 12:11:32;;;;;;;4.90;3.47;;;27.30;72.30;;;;;;5060886;28;20638;-40
2023/06/16 12:14:00;;;;;;;5.03;3.38;;;27.40;72.60;;;;;;5042436;28;20215;-40
2023/06/16 12:16:27;;;;;;;4.00;3.33;;;27.60;72.90;;;;;;5043231;28;20713;-40
2023/06/16 12:18:56;;;;;;;4.93;3.25;;;27.70;72.90;;;;;;5043784;28;20281;-40
2023/06/16 12:21:26;;;;;;;5.63;3.55;;;27.70;72.70;;;;;;5074524;28;20759;-40
2023/06/16 12:24:09;;;;;;;5.45;3.83;;;27.80;71.70;;;;;;5061315;28;20231;-40
2023/06/16 12:26:40;;;;;;;6.72;3.88;;;27.80;71.20;;;;;;5060675;28;20269;-39
2023/06/16 12:29:15;;;;;;;4.40;3.25;;;27.90;71.90;;;;;;5095090;28;20309;-39
2023/06/16 12:31:53;;;;;;;4.63;3.40;;;27.90;71.50;;;;;;5094858;28;20207;-39
2023/06/16 12:34:32;;;;;;;7.15;4.00;;;27.90;70.60;;;;;;5063365;28;20741;-40
2023/06/16 12:37:03;;;;;;;9.27;4.95;;;27.90;71.20;;;;;;5060763;28;20728;-40
2023/06/16 12:39:36;;;;;;;10.77;4.80;;;27.90;71.10;;;;;;5057851;28;20565;-40
2023/06/16 12:42:04;;;;;;;7.05;4.25;;;27.90;71.10;;;;;;5062197;28;20379;-40
2023/06/16 12:44:48;;;;;;;8.98;4.05;;;27.90;71.60;;;;;;5093491;28;20231;-40
2023/06/16 12:47:20;;;;;;;6.93;3.90;;;28.00;71.90;;;;;;5074046;28;20631;-40
2023/06/16 12:49:54;;;;;;;8.27;3.78;;;28.00;71.90;;;;;;5061003;28;20616;-40
2023/06/16 12:52:22;;;;;;;8.52;3.50;;;28.10;71.60;;;;;;5063163;28;20277;-40
2023/06/16 12:54:56;;;;;;;5.82;4.15;;;28.20;72.10;;;;;;5058635;28;20319;-39
2023/06/16 12:57:27;;;;;;;5.65;3.75;;;28.20;72.10;;;;;;5060490;28;20329;-41
2023/06/16 12:59:55;;;;;;;4.28;3.72;;;28.30;71.20;;;;;;5093048;28;20278;-39
2023/06/16 13:02:24;;;;;;;3.80;3.42;;;28.40;71.30;;;;;;5062773;28;20200;-39
2023/06/16 13:04:52;;;;;;;5.18;3.35;;;28.40;71.80;;;;;;5060595;28;20762;-39